Latest Weather Observations for Wadeye (Port Keats)

IDD60801

Issued at 10:31 am CST Sunday 24 September 2017 (issued every 30 minutes, with the page automatically refreshed every 10 minutes)

About weather observations | Map of weather stations | Latest weather observations for NT | Other Formats
Station Details ID: 014948 Name: PORT KEATS AIRPORT Lat: -14.25 Lon: 129.53 Height: 28.0 m
Data from the previous 72 hours. | See also: Recent months at Wadeye (Port Keats)
Date/Time
CST
Temp
°C
App
Temp
°C
Dew
Point
°C
Rel
Hum
%
Delta-T
°C
Wind Press
QNH
hPa
Press
MSL
hPa
Rain since
9am
mm
Dir  Spd
km/h
Gust
km/h
Spd
kts
Gust
kts
24/10:30am 30.5 32.4 21.3 58 6.2 NNW 13 11 7 6 1012.8 1012.6 -
24/10:00am 30.4 32.6 21.8 60 5.8 NNW 13 19 7 10 1013.1 1012.9 0.0
24/09:30am 29.7 32.1 22.2 64 5.1 NNW 13 17 7 9 1013.2 1013.0 0.0
24/09:00am 28.8 31.5 22.1 67 4.5 WNW 11 17 6 9 1013.2 1013.0 0.0
24/08:30am 28.3 31.8 22.8 72 3.7 NW 9 15 5 8 1013.0 1012.8 0.0
24/08:00am 26.8 31.4 23.1 80 2.5 WNW 4 9 2 5 1012.8 1012.6 0.0
24/07:30am 26.0 31.7 23.7 87 1.6 CALM 0 0 0 0 1012.6 1012.4 0.0
24/07:00am 24.6 29.8 22.8 90 1.2 CALM 0 0 0 0 1012.4 1012.2 0.0
24/06:30am 24.5 29.6 22.6 89 1.3 CALM 0 0 0 0 1012.0 1011.8 0.0
24/06:00am 24.5 29.1 22.4 88 1.4 E 2 9 1 5 1011.8 1011.6 0.0
24/05:30am 24.7 29.6 22.4 87 1.5 CALM 0 0 0 0 1011.4 1011.2 0.0
24/05:00am 24.7 29.3 21.8 84 1.9 CALM 0 0 0 0 1011.3 1011.1 0.0
24/04:30am 25.1 29.3 23.2 89 1.3 W 6 9 3 5 1011.1 1010.9 0.0
24/04:00am 24.9 29.3 22.8 88 1.4 W 4 9 2 5 1011.0 1010.8 0.0
24/03:30am 24.8 30.0 22.9 89 1.3 CALM 0 6 0 3 1010.9 1010.7 0.0
24/03:00am 24.1 28.5 21.4 85 1.8 CALM 0 6 0 3 1011.1 1010.9 0.0
24/02:30am 24.5 29.1 21.8 85 1.8 CALM 0 0 0 0 1011.3 1011.1 0.0
24/02:00am 25.5 30.4 22.4 83 2.1 CALM 0 0 0 0 1011.4 1011.2 0.0
24/01:30am 25.6 30.1 22.9 85 1.8 NW 4 7 2 4 1011.6 1011.4 0.0
24/01:00am 25.8 31.0 22.9 84 2.0 CALM 0 6 0 3 1011.8 1011.6 0.0
24/12:30am 25.4 30.2 22.1 82 2.2 CALM 0 6 0 3 1011.9 1011.7 0.0
24/12:00am 25.8 30.9 22.7 83 2.1 CALM 0 0 0 0 1011.9 1011.7 0.0
 
Date/Time
CST
Temp
°C
App
Temp
°C
Dew
Point
°C
Rel
Hum
%
Delta-T
°C
Wind Press
QNH
hPa
Press
MSL
hPa
Rain since
9am
mm
Dir  Spd
km/h
Gust
km/h
Spd
kts
Gust
kts
23/11:30pm 25.6 29.7 22.3 82 2.2 W 4 6 2 3 1011.9 1011.7 0.0
23/11:00pm 25.8 29.9 22.3 81 2.4 WSW 4 6 2 3 1011.9 1011.7 0.0
23/10:30pm 26.5 30.2 22.3 78 2.8 NW 6 11 3 6 1012.0 1011.8 0.0
23/10:00pm 26.7 30.3 22.3 77 3.0 NNW 7 11 4 6 1011.7 1011.5 0.0
23/09:30pm 26.7 30.3 22.1 76 3.1 NW 6 7 3 4 1011.5 1011.3 0.0
23/09:00pm 27.0 30.4 21.7 73 3.5 WNW 6 7 3 4 1011.0 1010.8 0.0
23/08:30pm 27.5 30.6 22.2 73 3.6 NNW 9 11 5 6 1010.7 1010.5 0.0
23/08:00pm 27.3 30.6 21.8 72 3.7 WNW 7 11 4 6 1010.6 1010.4 0.0
23/07:30pm 27.7 30.6 21.7 70 4.0 WNW 9 13 5 7 1010.5 1010.3 0.0
23/07:00pm 28.5 31.1 20.5 62 5.3 WNW 7 13 4 7 1010.2 1010.0 0.0
23/06:30pm 29.4 31.0 20.0 57 6.2 W 11 15 6 8 1009.8 1009.6 0.0
23/06:00pm 30.7 31.8 19.7 52 7.2 W 13 17 7 9 1009.7 1009.5 0.0
23/05:30pm 31.4 32.5 19.7 49 7.7 WNW 13 19 7 10 1009.5 1009.3 0.0
23/05:00pm 31.6 32.1 19.2 47 8.1 NW 15 20 8 11 1009.7 1009.5 0.0
23/04:30pm 31.5 32.3 19.8 49 7.7 WNW 15 24 8 13 1009.8 1009.6 0.0
23/04:00pm 31.6 32.3 19.6 49 7.9 WNW 15 22 8 12 1009.7 1009.5 0.0
23/03:30pm 32.3 33.4 20.5 49 7.9 W 15 22 8 12 1010.0 1009.8 0.0
23/03:00pm 32.0 32.8 19.9 48 8.0 WNW 15 22 8 12 1010.3 1010.1 0.0
23/02:30pm 32.7 33.1 20.6 49 8.1 NW 19 26 10 14 1010.6 1010.4 0.0
23/02:00pm 32.2 33.3 20.5 50 7.8 W 15 24 8 13 1010.9 1010.7 0.0
23/01:30pm 31.2 31.6 19.9 51 7.5 NW 17 28 9 15 1011.4 1011.2 0.0
23/01:00pm 32.4 33.4 21.0 51 7.7 NW 17 24 9 13 1012.0 1011.8 0.0
23/12:30pm 31.8 33.0 20.7 51 7.4 NNW 15 26 8 14 1012.4 1012.2 0.0
23/12:00pm 32.5 34.2 21.7 53 7.3 NW 15 24 8 13 1012.8 1012.6 0.0
23/11:30am 31.5 34.0 21.7 56 6.6 NW 11 19 6 10 1013.4 1013.2 0.0
23/11:00am 30.6 33.1 21.7 59 6.0 WNW 11 19 6 10 1013.9 1013.7 0.0
23/10:30am 30.5 33.0 22.4 62 5.5 NW 13 17 7 9 1014.3 1014.1 0.0
23/10:00am 29.0 31.9 21.7 64 4.9 NW 9 19 5 10 1014.5 1014.3 0.0
23/09:30am 28.9 32.4 21.9 66 4.7 NW 6 13 3 7 1014.6 1014.4 0.0
23/09:00am 27.8 30.7 21.8 70 4.0 W 9 13 5 7 1014.6 1014.4 0.0
23/08:30am 27.6 31.3 22.3 73 3.6 W 6 9 3 5 1014.3 1014.1 0.0
23/08:00am 26.7 32.2 23.4 82 2.3 CALM 0 0 0 0 1014.0 1013.8 0.0
23/07:30am 25.3 30.7 23.2 88 1.4 CALM 0 0 0 0 1013.6 1013.4 0.0
23/07:00am 24.3 29.1 22.2 88 1.4 CALM 0 6 0 3 1013.3 1013.1 0.0
23/06:30am 24.0 28.7 21.9 88 1.4 CALM 0 0 0 0 1013.0 1012.8 0.0
23/06:00am 24.0 27.7 21.5 86 1.7 SE 4 6 2 3 1012.8 1012.6 0.0
23/05:30am 24.6 29.6 22.5 88 1.4 CALM 0 0 0 0 1012.3 1012.1 0.0
23/05:00am 24.5 29.4 22.4 88 1.4 CALM 0 0 0 0 1012.0 1011.8 0.0
23/04:30am 24.1 28.6 21.6 86 1.7 CALM 0 0 0 0 1011.6 1011.4 0.0
23/04:00am 24.8 29.6 22.9 89 1.3 NW 2 7 1 4 1011.4 1011.2 0.0
23/03:30am 24.7 29.8 22.6 88 1.4 CALM 0 6 0 3 1011.4 1011.2 0.0
23/03:00am 24.6 29.5 22.3 87 1.5 CALM 0 7 0 4 1011.5 1011.3 0.0
23/02:30am 24.7 29.5 22.2 86 1.7 CALM 0 6 0 3 1011.7 1011.5 0.0
23/02:00am 24.9 29.4 22.2 85 1.8 NW 2 6 1 3 1011.7 1011.5 0.0
23/01:30am 25.2 29.3 22.3 84 1.9 NNW 4 7 2 4 1011.9 1011.7 0.0
23/01:00am 25.4 29.8 22.1 82 2.2 NNW 2 6 1 3 1012.0 1011.8 0.0
23/12:30am 25.4 28.8 21.7 80 2.5 NW 6 7 3 4 1012.1 1011.9 0.0
23/12:00am 26.2 30.0 22.7 81 2.4 NNW 7 9 4 5 1012.3 1012.1 0.0
 
Date/Time
CST
Temp
°C
App
Temp
°C
Dew
Point
°C
Rel
Hum
%
Delta-T
°C
Wind Press
QNH
hPa
Press
MSL
hPa
Rain since
9am
mm
Dir  Spd
km/h
Gust
km/h
Spd
kts
Gust
kts
22/11:30pm 25.6 29.1 21.9 80 2.5 NNW 6 7 3 4 1012.4 1012.2 0.0
22/11:00pm 26.0 29.7 22.5 81 2.4 NNW 7 11 4 6 1012.4 1012.2 0.0
22/10:30pm 26.3 29.9 22.4 79 2.6 N 7 9 4 5 1012.3 1012.1 0.0
22/10:00pm 26.3 30.7 21.3 74 3.3 CALM 0 6 0 3 1012.3 1012.1 0.0
22/09:30pm 26.3 30.1 21.7 76 3.1 NW 4 7 2 4 1012.2 1012.0 0.0
22/09:00pm 26.5 30.6 21.5 74 3.3 WNW 2 6 1 3 1012.0 1011.8 0.0
22/08:30pm 26.6 30.8 20.9 71 3.8 CALM 0 0 0 0 1011.6 1011.4 0.0
22/08:00pm 27.0 29.9 20.6 68 4.2 WSW 6 7 3 4 1011.3 1011.1 0.0
22/07:30pm 27.4 30.6 20.5 66 4.5 WSW 4 7 2 4 1011.2 1011.0 0.0
22/07:00pm 27.9 30.7 20.5 64 4.9 WSW 6 9 3 5 1010.9 1010.7 0.0
22/06:30pm 28.5 31.2 20.2 60 5.5 W 6 9 3 5 1010.6 1010.4 0.0
22/06:00pm 28.8 30.0 20.0 59 5.8 W 13 20 7 11 1010.1 1009.9 0.0
22/05:30pm 29.6 30.2 20.2 57 6.2 W 17 28 9 15 1009.5 1009.3 0.0
22/05:00pm 29.9 31.9 19.9 55 6.6 WSW 9 13 5 7 1010.2 1010.0 0.0
22/04:30pm 30.2 32.2 19.9 54 6.8 SW 9 15 5 8 1010.7 1010.5 0.0
22/04:00pm 31.4 32.2 20.7 53 7.1 WSW 17 26 9 14 1010.2 1010.0 0.0
22/03:30pm 31.2 31.8 20.2 52 7.3 WSW 17 30 9 16 1010.3 1010.1 0.0
22/03:00pm 30.8 31.6 19.8 52 7.2 WSW 15 26 8 14 1010.5 1010.3 0.0
22/02:30pm 30.5 31.0 20.1 53 6.9 WSW 17 26 9 14 1010.8 1010.6 0.0
22/02:00pm 32.1 32.9 21.3 53 7.3 W 19 32 10 17 1011.1 1010.9 0.0
22/01:30pm 30.7 31.7 20.3 53 6.9 W 15 26 8 14 1011.5 1011.3 0.0
22/01:00pm 32.0 32.9 20.9 52 7.4 WNW 17 22 9 12 1012.0 1011.8 0.0
22/12:30pm 31.6 33.4 21.2 54 7.0 NW 13 20 7 11 1012.5 1012.3 0.0
22/12:00pm 31.3 33.3 21.5 56 6.6 W 13 20 7 11 1013.0 1012.8 0.0
22/11:30am 31.5 33.6 21.7 56 6.6 NW 13 24 7 13 1013.4 1013.2 0.0
22/11:00am 30.2 32.6 21.6 60 5.8 NW 11 22 6 12 1014.0 1013.8 0.0
22/10:30am 29.5 32.6 22.2 65 4.9 NNW 9 13 5 7 1014.3 1014.1 0.0
22/10:00am 29.0 31.9 22.5 68 4.4 WNW 11 15 6 8 1014.5 1014.3 0.0
22/09:30am 28.6 32.1 22.1 68 4.4 NW 7 13 4 7 1014.5 1014.3 0.0
22/09:00am 27.9 32.3 22.8 74 3.5 NW 4 9 2 5 1014.4 1014.2 0.0
22/08:30am 27.6 32.9 23.0 76 3.1 CALM 0 0 0 0 1014.2 1014.0 0.0
22/08:00am 26.5 31.4 23.0 81 2.4 E 2 6 1 3 1013.9 1013.7 0.0
22/07:30am 25.0 29.0 22.7 87 1.6 ESE 6 7 3 4 1013.5 1013.3 0.0
22/07:00am 24.2 27.8 22.1 88 1.4 ESE 6 7 3 4 1013.0 1012.8 0.0
22/06:30am 24.1 27.8 22.2 89 1.3 E 6 11 3 6 1012.7 1012.5 0.0
22/06:00am 23.8 28.5 21.9 89 1.3 CALM 0 0 0 0 1012.1 1011.9 0.0
22/05:30am 22.8 26.5 20.0 84 1.8 CALM 0 0 0 0 1011.8 1011.6 0.0
22/05:00am 22.7 26.1 20.2 86 1.6 S 2 9 1 5 1011.4 1011.2 0.0
22/04:30am 21.8 25.2 19.4 86 1.5 CALM 0 0 0 0 1011.1 1010.9 0.0
22/04:00am 22.5 26.2 19.9 85 1.7 CALM 0 0 0 0 1010.9 1010.7 0.0
22/03:30am 23.2 27.1 21.1 88 1.4 ENE 2 7 1 4 1010.9 1010.7 0.0
22/03:00am 23.4 27.4 21.3 88 1.4 NE 2 7 1 4 1010.7 1010.5 0.0
22/02:30am 23.2 27.4 20.9 87 1.5 CALM 0 0 0 0 1010.7 1010.5 0.0
22/02:00am 23.3 27.5 21.0 87 1.5 CALM 0 0 0 0 1010.9 1010.7 0.0
22/01:30am 23.3 27.1 20.2 83 2.0 CALM 0 0 0 0 1011.1 1010.9 0.0
22/01:00am 23.6 27.6 20.5 83 2.0 CALM 0 0 0 0 1011.1 1010.9 0.0
22/12:30am 23.5 27.5 20.6 84 1.9 CALM 0 0 0 0 1011.1 1010.9 0.0
22/12:00am 23.9 27.8 21.2 85 1.8 SSE 2 7 1 4 1011.4 1011.2 0.0
 
Date/Time
CST
Temp
°C
App
Temp
°C
Dew
Point
°C
Rel
Hum
%
Delta-T
°C
Wind Press
QNH
hPa
Press
MSL
hPa
Rain since
9am
mm
Dir  Spd
km/h
Gust
km/h
Spd
kts
Gust
kts
21/11:30pm 23.8 27.7 20.3 81 2.3 CALM 0 0 0 0 1011.4 1011.2 0.0
21/11:00pm 24.9 29.2 22.0 84 1.9 SSE 2 9 1 5 1011.4 1011.2 0.0
21/10:30pm 25.0 29.0 21.3 80 2.4 N 2 7 1 4 1011.2 1011.0 0.0
21/10:00pm 25.6 29.2 22.1 81 2.3 NNE 6 7 3 4 1011.0 1010.8 0.0
21/09:30pm 26.0 29.4 21.7 77 2.9 NNW 6 9 3 5 1010.6 1010.4 0.0
21/09:00pm 26.6 30.0 22.0 76 3.1 NNW 7 11 4 6 1010.5 1010.3 0.0
21/08:30pm 26.3 30.3 21.3 74 3.3 WNW 2 7 1 4 1010.2 1010.0 0.0
21/08:00pm 26.6 29.7 21.1 72 3.6 WNW 6 11 3 6 1009.9 1009.7 0.0
21/07:30pm 27.0 30.0 20.8 69 4.1 W 6 9 3 5 1009.6 1009.4 0.0
21/07:00pm 27.6 30.1 20.2 64 4.9 W 7 13 4 7 1009.5 1009.3 0.0
21/06:30pm 28.1 29.9 19.6 60 5.5 W 9 13 5 7 1009.1 1008.9 0.0
21/06:00pm 28.8 29.8 19.4 56 6.1 WNW 13 19 7 10 1009.0 1008.8 0.0
21/05:30pm 29.6 30.1 19.3 54 6.7 NW 15 24 8 13 1008.9 1008.7 0.0
21/05:00pm 30.5 31.8 20.1 53 6.9 W 13 20 7 11 1009.0 1008.8 0.0
21/04:30pm 30.9 32.0 20.5 54 6.9 WNW 15 20 8 11 1009.0 1008.8 0.0
21/04:00pm 30.2 31.1 19.3 52 7.1 WNW 13 20 7 11 1009.1 1008.9 0.0
21/03:30pm 30.9 32.0 18.9 48 7.8 W 11 17 6 9 1009.7 1009.5 0.0
21/03:00pm 31.3 31.5 18.6 46 8.2 WNW 15 20 8 11 1009.6 1009.4 0.0
21/02:30pm 32.4 32.1 18.2 42 9.2 W 17 24 9 13 1010.1 1009.9 0.0
21/02:00pm 31.7 31.3 19.0 47 8.3 NW 19 28 10 15 1010.3 1010.1 0.0
21/01:30pm 32.5 33.6 20.4 49 8.1 NW 15 24 8 13 1010.9 1010.7 0.0
21/01:00pm 32.0 33.1 19.6 47 8.2 NW 13 20 7 11 1011.5 1011.3 0.0
21/12:30pm 31.6 32.9 20.8 52 7.2 NW 15 24 8 13 1012.1 1011.9 0.0
21/12:00pm 31.2 32.1 20.8 54 6.9 N 17 22 9 12 1012.6 1012.4 0.0
21/11:30am 30.6 31.6 21.1 57 6.4 NNW 17 22 9 12 1012.9 1012.7 0.0
21/11:00am 30.8 31.6 20.7 55 6.7 N 17 20 9 11 1013.3 1013.1 0.0

Other Formats:

Comma delimited format used in spreadsheet applications
http://www.bom.gov.au/fwo/IDD60801/IDD60801.95111.axf

JavaScript Object Notation format (JSON) in row-major order
http://www.bom.gov.au/fwo/IDD60801/IDD60801.95111.json